Niter, Idaho
Current Conditions -  °F | °C
As of 7:15 PM on Friday 19 Dec 2014 (Local Time) from KAFO Reporting Station
Overcast Overcast  
Wind Chill: -3°   Ceiling: 3700
Heat Index:   Visibility: 10mi
Dew Point: -3°   Wind: 5mph
Humidity: 80%   Direction: 190°S
Pressure: 30.08"   Gusts: NA
Location:  42.5232°N, 111.761°W
Report Text: KAFO 200215Z AUTO 19004KT 10SM OVC037 00/M03 A3008 RMK AO2
Loading
Personal Weather Stations






























Interactive Weather Map New forecast layout! Learn more

10-Day Weather Forecast

Advertisements
Track Severe Weather on mobile